Terminal Aerodrome Forecast
Issued by NWS

Home | Current Version | Previous Version | Text Only | Print | Product List | Glossary Off
Versions: 1 2 3 4 5 6 7 8 9 10 11 12 13 14 15 16 17

000
FTUS43 KBIS 010500
TAFMOT
TAF
KMOT 010520Z 0106/0206 22009KT P6SM SCT100
     FM010900 27011KT 4SM -SN OVC020
     FM011600 27011KT P6SM SCT020=

USA.gov is the U.S. government's official web portal to all federal, state and local government web resources and services.